sensor_id;sensor_type;location;lat;lon;timestamp;P1;durP1;ratioP1;P2;durP2;ratioP2
65469;SDS011;52067;50.710;14.492;2022-09-09T00:04:37;6.25;;;3.90;;
65469;SDS011;52067;50.710;14.492;2022-09-09T00:12:42;5.35;;;3.47;;
65469;SDS011;52067;50.710;14.492;2022-09-09T00:15:19;9.35;;;3.92;;
65469;SDS011;52067;50.710;14.492;2022-09-09T00:23:11;11.95;;;3.78;;
65469;SDS011;52067;50.710;14.492;2022-09-09T00:28:19;7.15;;;4.20;;
65469;SDS011;52067;50.710;14.492;2022-09-09T00:30:50;7.50;;;3.80;;
65469;SDS011;52067;50.710;14.492;2022-09-09T00:33:19;6.40;;;3.78;;
65469;SDS011;52067;50.710;14.492;2022-09-09T00:35:48;8.45;;;3.95;;
65469;SDS011;52067;50.710;14.492;2022-09-09T00:38:15;6.35;;;3.80;;
65469;SDS011;52067;50.710;14.492;2022-09-09T00:40:49;6.47;;;3.90;;
65469;SDS011;52067;50.710;14.492;2022-09-09T00:43:30;4.78;;;3.25;;
65469;SDS011;52067;50.710;14.492;2022-09-09T00:48:53;6.78;;;3.72;;
65469;SDS011;52067;50.710;14.492;2022-09-09T01:02:11;6.82;;;3.25;;
65469;SDS011;52067;50.710;14.492;2022-09-09T01:04:47;6.78;;;3.90;;
65469;SDS011;52067;50.710;14.492;2022-09-09T01:07:21;4.72;;;3.13;;
65469;SDS011;52067;50.710;14.492;2022-09-09T01:09:57;8.98;;;3.88;;
65469;SDS011;52067;50.710;14.492;2022-09-09T01:12:25;7.32;;;4.10;;
65469;SDS011;52067;50.710;14.492;2022-09-09T01:14:56;5.75;;;3.55;;
65469;SDS011;52067;50.710;14.492;2022-09-09T01:17:31;7.70;;;3.50;;
65469;SDS011;52067;50.710;14.492;2022-09-09T01:28:44;34.00;;;3.50;;
65469;SDS011;52067;50.710;14.492;2022-09-09T01:31:14;21.60;;;3.95;;
65469;SDS011;52067;50.710;14.492;2022-09-09T01:33:44;19.70;;;3.70;;
65469;SDS011;52067;50.710;14.492;2022-09-09T01:36:15;5.53;;;3.33;;
65469;SDS011;52067;50.710;14.492;2022-09-09T01:38:46;6.72;;;3.53;;
65469;SDS011;52067;50.710;14.492;2022-09-09T01:41:12;6.15;;;3.17;;
65469;SDS011;52067;50.710;14.492;2022-09-09T01:43:37;4.82;;;3.33;;
65469;SDS011;52067;50.710;14.492;2022-09-09T01:46:03;6.78;;;3.30;;
65469;SDS011;52067;50.710;14.492;2022-09-09T01:48:28;6.97;;;3.40;;
65469;SDS011;52067;50.710;14.492;2022-09-09T01:50:55;8.10;;;3.65;;
65469;SDS011;52067;50.710;14.492;2022-09-09T01:53:21;7.55;;;3.30;;
65469;SDS011;52067;50.710;14.492;2022-09-09T01:55:52;8.10;;;3.33;;
65469;SDS011;52067;50.710;14.492;2022-09-09T02:03:55;4.45;;;2.97;;
65469;SDS011;52067;50.710;14.492;2022-09-09T02:06:38;5.80;;;3.25;;
65469;SDS011;52067;50.710;14.492;2022-09-09T02:09:05;10.45;;;3.58;;
65469;SDS011;52067;50.710;14.492;2022-09-09T02:11:33;7.25;;;3.70;;
65469;SDS011;52067;50.710;14.492;2022-09-09T02:14:04;9.95;;;3.42;;
65469;SDS011;52067;50.710;14.492;2022-09-09T02:16:40;5.73;;;3.23;;
65469;SDS011;52067;50.710;14.492;2022-09-09T02:21:46;9.88;;;3.33;;
65469;SDS011;52067;50.710;14.492;2022-09-09T02:24:12;6.32;;;2.90;;
65469;SDS011;52067;50.710;14.492;2022-09-09T02:26:41;5.28;;;2.70;;
65469;SDS011;52067;50.710;14.492;2022-09-09T02:29:21;4.47;;;2.88;;
65469;SDS011;52067;50.710;14.492;2022-09-09T02:31:50;5.45;;;2.80;;
65469;SDS011;52067;50.710;14.492;2022-09-09T02:34:16;7.20;;;3.10;;
65469;SDS011;52067;50.710;14.492;2022-09-09T02:36:44;10.15;;;2.50;;
65469;SDS011;52067;50.710;14.492;2022-09-09T02:39:11;6.70;;;2.85;;
65469;SDS011;52067;50.710;14.492;2022-09-09T02:41:39;6.88;;;2.80;;
65469;SDS011;52067;50.710;14.492;2022-09-09T02:44:12;4.35;;;2.90;;
65469;SDS011;52067;50.710;14.492;2022-09-09T02:49:40;7.00;;;3.10;;
65469;SDS011;52067;50.710;14.492;2022-09-09T02:52:06;7.88;;;3.13;;
65469;SDS011;52067;50.710;14.492;2022-09-09T02:54:33;5.78;;;3.25;;
65469;SDS011;52067;50.710;14.492;2022-09-09T03:00:04;9.68;;;3.08;;
65469;SDS011;52067;50.710;14.492;2022-09-09T03:02:30;4.55;;;3.10;;
65469;SDS011;52067;50.710;14.492;2022-09-09T03:04:55;6.30;;;2.78;;
65469;SDS011;52067;50.710;14.492;2022-09-09T03:07:21;5.60;;;2.70;;
65469;SDS011;52067;50.710;14.492;2022-09-09T03:09:46;4.55;;;3.10;;
65469;SDS011;52067;50.710;14.492;2022-09-09T03:12:12;6.35;;;3.00;;
65469;SDS011;52067;50.710;14.492;2022-09-09T03:14:38;4.28;;;2.65;;
65469;SDS011;52067;50.710;14.492;2022-09-09T03:17:03;6.85;;;3.55;;
65469;SDS011;52067;50.710;14.492;2022-09-09T03:19:30;5.78;;;3.20;;
65469;SDS011;52067;50.710;14.492;2022-09-09T03:21:56;5.18;;;3.20;;
65469;SDS011;52067;50.710;14.492;2022-09-09T03:24:21;5.95;;;3.00;;
65469;SDS011;52067;50.710;14.492;2022-09-09T03:26:47;5.18;;;3.08;;
65469;SDS011;52067;50.710;14.492;2022-09-09T03:29:13;5.85;;;2.60;;
65469;SDS011;52067;50.710;14.492;2022-09-09T03:31:39;6.68;;;2.90;;
65469;SDS011;52067;50.710;14.492;2022-09-09T03:34:05;3.17;;;2.22;;
65469;SDS011;52067;50.710;14.492;2022-09-09T03:36:31;5.28;;;2.80;;
65469;SDS011;52067;50.710;14.492;2022-09-09T03:38:57;5.68;;;2.75;;
65469;SDS011;52067;50.710;14.492;2022-09-09T03:41:24;4.93;;;3.00;;
65469;SDS011;52067;50.710;14.492;2022-09-09T03:43:50;4.15;;;3.00;;
65469;SDS011;52067;50.710;14.492;2022-09-09T03:46:16;8.02;;;3.78;;
65469;SDS011;52067;50.710;14.492;2022-09-09T03:48:42;14.05;;;3.20;;
65469;SDS011;52067;50.710;14.492;2022-09-09T03:51:08;5.32;;;2.90;;
65469;SDS011;52067;50.710;14.492;2022-09-09T03:53:33;6.65;;;3.05;;
65469;SDS011;52067;50.710;14.492;2022-09-09T03:55:59;4.57;;;2.90;;
65469;SDS011;52067;50.710;14.492;2022-09-09T03:58:25;4.80;;;3.10;;
65469;SDS011;52067;50.710;14.492;2022-09-09T04:00:59;4.70;;;3.40;;
65469;SDS011;52067;50.710;14.492;2022-09-09T04:03:26;14.77;;;3.60;;
65469;SDS011;52067;50.710;14.492;2022-09-09T04:05:53;26.45;;;4.05;;
65469;SDS011;52067;50.710;14.492;2022-09-09T04:08:20;9.85;;;3.22;;
65469;SDS011;52067;50.710;14.492;2022-09-09T04:10:46;22.45;;;3.95;;
65469;SDS011;52067;50.710;14.492;2022-09-09T04:13:13;21.08;;;3.90;;
65469;SDS011;52067;50.710;14.492;2022-09-09T04:15:40;17.92;;;3.92;;
65469;SDS011;52067;50.710;14.492;2022-09-09T04:18:05;31.25;;;4.30;;
65469;SDS011;52067;50.710;14.492;2022-09-09T04:20:31;30.65;;;3.78;;
65469;SDS011;52067;50.710;14.492;2022-09-09T04:22:57;28.92;;;3.78;;
65469;SDS011;52067;50.710;14.492;2022-09-09T04:25:22;24.95;;;3.45;;
65469;SDS011;52067;50.710;14.492;2022-09-09T04:27:52;7.13;;;3.40;;
65469;SDS011;52067;50.710;14.492;2022-09-09T04:30:21;33.80;;;3.72;;
65469;SDS011;52067;50.710;14.492;2022-09-09T04:32:47;48.75;;;3.70;;
65469;SDS011;52067;50.710;14.492;2022-09-09T04:35:12;40.08;;;4.25;;
65469;SDS011;52067;50.710;14.492;2022-09-09T04:37:37;38.00;;;3.92;;
65469;SDS011;52067;50.710;14.492;2022-09-09T04:40:03;28.23;;;3.42;;
65469;SDS011;52067;50.710;14.492;2022-09-09T04:42:29;13.05;;;3.33;;
65469;SDS011;52067;50.710;14.492;2022-09-09T04:44:54;6.30;;;3.58;;
65469;SDS011;52067;50.710;14.492;2022-09-09T04:47:20;8.82;;;3.42;;
65469;SDS011;52067;50.710;14.492;2022-09-09T04:49:46;9.82;;;3.45;;
65469;SDS011;52067;50.710;14.492;2022-09-09T04:52:12;30.40;;;3.92;;
65469;SDS011;52067;50.710;14.492;2022-09-09T04:54:37;43.72;;;4.00;;
65469;SDS011;52067;50.710;14.492;2022-09-09T04:57:03;45.78;;;4.32;;
65469;SDS011;52067;50.710;14.492;2022-09-09T04:59:30;35.65;;;4.18;;
65469;SDS011;52067;50.710;14.492;2022-09-09T05:01:55;17.90;;;3.78;;
65469;SDS011;52067;50.710;14.492;2022-09-09T05:04:21;29.45;;;4.15;;
65469;SDS011;52067;50.710;14.492;2022-09-09T05:06:46;26.27;;;3.75;;
65469;SDS011;52067;50.710;14.492;2022-09-09T05:09:12;16.48;;;3.90;;
65469;SDS011;52067;50.710;14.492;2022-09-09T05:11:37;9.43;;;3.70;;
65469;SDS011;52067;50.710;14.492;2022-09-09T05:14:03;22.48;;;3.80;;
65469;SDS011;52067;50.710;14.492;2022-09-09T05:16:29;44.08;;;3.30;;
65469;SDS011;52067;50.710;14.492;2022-09-09T05:18:55;7.20;;;3.13;;
65469;SDS011;52067;50.710;14.492;2022-09-09T05:21:21;13.13;;;3.58;;
65469;SDS011;52067;50.710;14.492;2022-09-09T05:23:48;4.82;;;3.28;;
65469;SDS011;52067;50.710;14.492;2022-09-09T05:26:15;15.18;;;3.17;;
65469;SDS011;52067;50.710;14.492;2022-09-09T05:28:41;4.97;;;3.15;;
65469;SDS011;52067;50.710;14.492;2022-09-09T05:31:07;4.55;;;3.05;;
65469;SDS011;52067;50.710;14.492;2022-09-09T05:33:36;5.30;;;3.47;;
65469;SDS011;52067;50.710;14.492;2022-09-09T05:36:03;12.82;;;3.40;;
65469;SDS011;52067;50.710;14.492;2022-09-09T05:38:33;4.75;;;3.58;;
65469;SDS011;52067;50.710;14.492;2022-09-09T05:40:59;6.90;;;3.60;;
65469;SDS011;52067;50.710;14.492;2022-09-09T05:43:26;5.57;;;3.70;;
65469;SDS011;52067;50.710;14.492;2022-09-09T05:46:05;5.15;;;3.42;;
65469;SDS011;52067;50.710;14.492;2022-09-09T05:48:42;4.35;;;3.20;;
65469;SDS011;52067;50.710;14.492;2022-09-09T05:51:11;7.45;;;3.22;;
65469;SDS011;52067;50.710;14.492;2022-09-09T05:53:40;4.30;;;3.17;;
65469;SDS011;52067;50.710;14.492;2022-09-09T05:56:07;4.90;;;3.50;;
65469;SDS011;52067;50.710;14.492;2022-09-09T05:58:37;4.53;;;3.38;;
65469;SDS011;52067;50.710;14.492;2022-09-09T06:01:07;4.15;;;2.97;;
65469;SDS011;52067;50.710;14.492;2022-09-09T06:03:35;4.53;;;3.65;;
65469;SDS011;52067;50.710;14.492;2022-09-09T06:06:02;5.80;;;3.50;;
65469;SDS011;52067;50.710;14.492;2022-09-09T06:08:30;4.15;;;3.08;;
65469;SDS011;52067;50.710;14.492;2022-09-09T06:11:03;5.55;;;3.63;;
65469;SDS011;52067;50.710;14.492;2022-09-09T06:13:30;4.63;;;3.65;;
65469;SDS011;52067;50.710;14.492;2022-09-09T06:15:56;4.38;;;3.35;;
65469;SDS011;52067;50.710;14.492;2022-09-09T06:18:21;7.72;;;4.07;;
65469;SDS011;52067;50.710;14.492;2022-09-09T06:21:03;8.65;;;4.10;;
65469;SDS011;52067;50.710;14.492;2022-09-09T06:23:31;7.90;;;4.32;;
65469;SDS011;52067;50.710;14.492;2022-09-09T06:26:04;17.67;;;5.18;;
65469;SDS011;52067;50.710;14.492;2022-09-09T06:28:35;14.45;;;5.95;;
65469;SDS011;52067;50.710;14.492;2022-09-09T06:31:01;20.40;;;6.72;;
65469;SDS011;52067;50.710;14.492;2022-09-09T06:33:34;24.40;;;7.32;;
65469;SDS011;52067;50.710;14.492;2022-09-09T06:36:04;40.58;;;8.23;;
65469;SDS011;52067;50.710;14.492;2022-09-09T06:38:30;35.72;;;9.02;;
65469;SDS011;52067;50.710;14.492;2022-09-09T06:40:55;25.15;;;8.63;;
65469;SDS011;52067;50.710;14.492;2022-09-09T06:43:24;36.53;;;10.00;;
65469;SDS011;52067;50.710;14.492;2022-09-09T06:46:08;28.55;;;9.45;;
65469;SDS011;52067;50.710;14.492;2022-09-09T06:48:35;31.13;;;9.73;;
65469;SDS011;52067;50.710;14.492;2022-09-09T06:51:04;54.83;;;9.75;;
65469;SDS011;52067;50.710;14.492;2022-09-09T06:53:31;30.33;;;10.60;;
65469;SDS011;52067;50.710;14.492;2022-09-09T06:55:59;44.13;;;11.05;;
65469;SDS011;52067;50.710;14.492;2022-09-09T06:58:28;27.95;;;10.25;;
65469;SDS011;52067;50.710;14.492;2022-09-09T07:01:03;39.38;;;9.90;;
65469;SDS011;52067;50.710;14.492;2022-09-09T07:03:30;38.83;;;10.75;;
65469;SDS011;52067;50.710;14.492;2022-09-09T07:05:56;29.58;;;11.02;;
65469;SDS011;52067;50.710;14.492;2022-09-09T07:08:22;32.22;;;11.00;;
65469;SDS011;52067;50.710;14.492;2022-09-09T07:10:48;30.58;;;11.23;;
65469;SDS011;52067;50.710;14.492;2022-09-09T07:13:14;25.58;;;10.18;;
65469;SDS011;52067;50.710;14.492;2022-09-09T07:15:40;28.00;;;11.68;;
65469;SDS011;52067;50.710;14.492;2022-09-09T07:18:06;23.75;;;10.80;;
65469;SDS011;52067;50.710;14.492;2022-09-09T07:20:32;28.77;;;11.05;;
65469;SDS011;52067;50.710;14.492;2022-09-09T07:22:57;26.05;;;11.20;;
65469;SDS011;52067;50.710;14.492;2022-09-09T07:25:23;30.23;;;11.95;;
65469;SDS011;52067;50.710;14.492;2022-09-09T07:27:48;30.85;;;12.00;;
65469;SDS011;52067;50.710;14.492;2022-09-09T07:30:14;28.10;;;11.82;;
65469;SDS011;52067;50.710;14.492;2022-09-09T07:32:39;32.03;;;11.93;;
65469;SDS011;52067;50.710;14.492;2022-09-09T07:35:05;31.88;;;12.13;;
65469;SDS011;52067;50.710;14.492;2022-09-09T07:37:31;26.67;;;11.85;;
65469;SDS011;52067;50.710;14.492;2022-09-09T07:39:56;30.27;;;11.63;;
65469;SDS011;52067;50.710;14.492;2022-09-09T07:42:21;25.10;;;11.27;;
65469;SDS011;52067;50.710;14.492;2022-09-09T07:44:47;28.23;;;10.88;;
65469;SDS011;52067;50.710;14.492;2022-09-09T07:47:12;30.58;;;12.02;;
65469;SDS011;52067;50.710;14.492;2022-09-09T07:49:38;29.60;;;11.52;;
65469;SDS011;52067;50.710;14.492;2022-09-09T07:52:03;27.90;;;12.05;;
65469;SDS011;52067;50.710;14.492;2022-09-09T07:54:29;22.73;;;10.65;;
65469;SDS011;52067;50.710;14.492;2022-09-09T07:56:54;22.98;;;10.57;;
65469;SDS011;52067;50.710;14.492;2022-09-09T07:59:20;27.52;;;12.13;;
65469;SDS011;52067;50.710;14.492;2022-09-09T08:01:46;23.30;;;10.43;;
65469;SDS011;52067;50.710;14.492;2022-09-09T08:04:14;31.27;;;11.68;;
65469;SDS011;52067;50.710;14.492;2022-09-09T08:06:45;22.65;;;10.85;;
65469;SDS011;52067;50.710;14.492;2022-09-09T08:09:18;24.83;;;11.25;;
65469;SDS011;52067;50.710;14.492;2022-09-09T08:11:44;20.83;;;10.63;;
65469;SDS011;52067;50.710;14.492;2022-09-09T08:14:10;20.92;;;9.52;;
65469;SDS011;52067;50.710;14.492;2022-09-09T08:16:38;23.15;;;10.75;;
65469;SDS011;52067;50.710;14.492;2022-09-09T08:19:05;23.10;;;10.48;;
65469;SDS011;52067;50.710;14.492;2022-09-09T08:21:32;23.92;;;10.57;;
65469;SDS011;52067;50.710;14.492;2022-09-09T08:23:59;21.75;;;10.65;;
65469;SDS011;52067;50.710;14.492;2022-09-09T08:28:53;21.10;;;10.18;;
65469;SDS011;52067;50.710;14.492;2022-09-09T08:31:28;20.90;;;10.57;;
65469;SDS011;52067;50.710;14.492;2022-09-09T08:33:53;21.25;;;11.07;;
65469;SDS011;52067;50.710;14.492;2022-09-09T08:36:20;24.42;;;10.77;;
65469;SDS011;52067;50.710;14.492;2022-09-09T08:38:47;19.23;;;10.27;;
65469;SDS011;52067;50.710;14.492;2022-09-09T08:41:34;21.00;;;10.68;;
65469;SDS011;52067;50.710;14.492;2022-09-09T08:49:24;21.83;;;10.60;;
65469;SDS011;52067;50.710;14.492;2022-09-09T08:52:19;21.67;;;10.95;;
65469;SDS011;52067;50.710;14.492;2022-09-09T08:55:12;21.02;;;10.82;;
65469;SDS011;52067;50.710;14.492;2022-09-09T08:57:48;22.38;;;11.68;;
65469;SDS011;52067;50.710;14.492;2022-09-09T09:00:17;20.50;;;11.35;;
65469;SDS011;52067;50.710;14.492;2022-09-09T09:07:46;20.70;;;10.73;;
65469;SDS011;52067;50.710;14.492;2022-09-09T09:13:15;17.83;;;10.55;;
65469;SDS011;52067;50.710;14.492;2022-09-09T09:15:47;16.38;;;10.27;;
65469;SDS011;52067;50.710;14.492;2022-09-09T09:18:18;17.25;;;10.18;;
65469;SDS011;52067;50.710;14.492;2022-09-09T09:21:02;16.48;;;9.70;;
65469;SDS011;52067;50.710;14.492;2022-09-09T09:26:24;19.77;;;11.23;;
65469;SDS011;52067;50.710;14.492;2022-09-09T09:28:55;14.07;;;9.43;;
65469;SDS011;52067;50.710;14.492;2022-09-09T09:31:22;13.60;;;8.48;;
65469;SDS011;52067;50.710;14.492;2022-09-09T09:33:51;12.85;;;7.82;;
65469;SDS011;52067;50.710;14.492;2022-09-09T09:36:19;16.50;;;9.30;;
65469;SDS011;52067;50.710;14.492;2022-09-09T09:38:51;17.58;;;8.60;;
65469;SDS011;52067;50.710;14.492;2022-09-09T09:41:31;15.13;;;8.15;;
65469;SDS011;52067;50.710;14.492;2022-09-09T09:46:22;15.33;;;7.90;;
65469;SDS011;52067;50.710;14.492;2022-09-09T09:48:57;12.25;;;8.02;;
65469;SDS011;52067;50.710;14.492;2022-09-09T09:51:23;10.30;;;7.55;;
65469;SDS011;52067;50.710;14.492;2022-09-09T09:53:50;13.77;;;7.53;;
65469;SDS011;52067;50.710;14.492;2022-09-09T09:56:17;11.27;;;6.68;;
65469;SDS011;52067;50.710;14.492;2022-09-09T09:58:52;13.55;;;7.10;;
65469;SDS011;52067;50.710;14.492;2022-09-09T10:03:53;7.63;;;6.28;;
65469;SDS011;52067;50.710;14.492;2022-09-09T10:06:38;14.05;;;6.18;;
65469;SDS011;52067;50.710;14.492;2022-09-09T10:09:20;9.00;;;5.85;;
65469;SDS011;52067;50.710;14.492;2022-09-09T10:19:43;9.27;;;4.13;;
65469;SDS011;52067;50.710;14.492;2022-09-09T10:22:39;4.85;;;3.40;;
65469;SDS011;52067;50.710;14.492;2022-09-09T10:25:20;8.73;;;4.18;;
65469;SDS011;52067;50.710;14.492;2022-09-09T10:36:25;4.95;;;2.75;;
65469;SDS011;52067;50.710;14.492;2022-09-09T10:39:04;5.72;;;2.80;;
65469;SDS011;52067;50.710;14.492;2022-09-09T10:41:51;3.80;;;2.30;;
65469;SDS011;52067;50.710;14.492;2022-09-09T10:44:40;3.38;;;2.72;;
65469;SDS011;52067;50.710;14.492;2022-09-09T10:57:29;3.47;;;2.10;;
65469;SDS011;52067;50.710;14.492;2022-09-09T11:00:04;3.50;;;1.90;;
65469;SDS011;52067;50.710;14.492;2022-09-09T11:02:32;3.35;;;1.85;;
65469;SDS011;52067;50.710;14.492;2022-09-09T11:06:01;3.28;;;2.03;;
65469;SDS011;52067;50.710;14.492;2022-09-09T11:08:18;7.70;;;2.50;;
65469;SDS011;52067;50.710;14.492;2022-09-09T11:13:26;4.25;;;2.08;;
65469;SDS011;52067;50.710;14.492;2022-09-09T11:19:42;3.40;;;1.30;;
65469;SDS011;52067;50.710;14.492;2022-09-09T11:22:45;3.67;;;1.35;;
65469;SDS011;52067;50.710;14.492;2022-09-09T11:24:52;3.58;;;1.50;;
65469;SDS011;52067;50.710;14.492;2022-09-09T11:27:26;4.75;;;1.60;;
65469;SDS011;52067;50.710;14.492;2022-09-09T11:38:44;4.53;;;1.30;;
65469;SDS011;52067;50.710;14.492;2022-09-09T11:41:16;2.40;;;1.20;;
65469;SDS011;52067;50.710;14.492;2022-09-09T11:43:43;4.75;;;1.30;;
65469;SDS011;52067;50.710;14.492;2022-09-09T11:46:11;6.70;;;1.17;;
65469;SDS011;52067;50.710;14.492;2022-09-09T11:51:31;6.80;;;1.55;;
65469;SDS011;52067;50.710;14.492;2022-09-09T11:54:25;2.78;;;1.23;;
65469;SDS011;52067;50.710;14.492;2022-09-09T11:56:53;3.58;;;1.40;;
65469;SDS011;52067;50.710;14.492;2022-09-09T11:59:29;4.07;;;1.40;;
65469;SDS011;52067;50.710;14.492;2022-09-09T12:02:16;3.33;;;1.33;;
65469;SDS011;52067;50.710;14.492;2022-09-09T12:05:30;4.50;;;1.50;;
65469;SDS011;52067;50.710;14.492;2022-09-09T12:07:38;4.68;;;1.48;;
65469;SDS011;52067;50.710;14.492;2022-09-09T12:12:34;3.78;;;1.65;;
65469;SDS011;52067;50.710;14.492;2022-09-09T12:17:46;3.30;;;1.40;;
65469;SDS011;52067;50.710;14.492;2022-09-09T12:20:20;2.58;;;1.00;;
65469;SDS011;52067;50.710;14.492;2022-09-09T12:31:24;2.90;;;1.30;;
65469;SDS011;52067;50.710;14.492;2022-09-09T12:33:51;5.05;;;1.20;;
65469;SDS011;52067;50.710;14.492;2022-09-09T12:36:38;3.13;;;1.45;;
65469;SDS011;52067;50.710;14.492;2022-09-09T12:39:15;5.07;;;1.60;;
65469;SDS011;52067;50.710;14.492;2022-09-09T12:41:50;2.53;;;1.15;;
65469;SDS011;52067;50.710;14.492;2022-09-09T12:44:21;3.90;;;1.30;;
65469;SDS011;52067;50.710;14.492;2022-09-09T12:46:48;4.97;;;1.77;;
65469;SDS011;52067;50.710;14.492;2022-09-09T12:49:36;3.47;;;1.50;;
65469;SDS011;52067;50.710;14.492;2022-09-09T12:52:06;8.25;;;2.03;;
65469;SDS011;52067;50.710;14.492;2022-09-09T12:54:35;4.45;;;1.48;;
65469;SDS011;52067;50.710;14.492;2022-09-09T12:57:02;4.10;;;1.60;;
65469;SDS011;52067;50.710;14.492;2022-09-09T12:59:36;4.03;;;1.48;;
65469;SDS011;52067;50.710;14.492;2022-09-09T13:04:49;6.50;;;1.97;;
65469;SDS011;52067;50.710;14.492;2022-09-09T13:07:16;3.15;;;1.65;;
65469;SDS011;52067;50.710;14.492;2022-09-09T13:09:45;6.07;;;2.00;;
65469;SDS011;52067;50.710;14.492;2022-09-09T13:12:21;4.30;;;1.40;;
65469;SDS011;52067;50.710;14.492;2022-09-09T13:14:53;4.50;;;1.38;;
65469;SDS011;52067;50.710;14.492;2022-09-09T13:17:22;4.07;;;1.67;;
65469;SDS011;52067;50.710;14.492;2022-09-09T13:19:49;5.22;;;1.60;;
65469;SDS011;52067;50.710;14.492;2022-09-09T13:27:40;3.45;;;1.48;;
65469;SDS011;52067;50.710;14.492;2022-09-09T13:35:31;5.28;;;1.30;;
65469;SDS011;52067;50.710;14.492;2022-09-09T13:37:57;1.95;;;1.08;;
65469;SDS011;52067;50.710;14.492;2022-09-09T13:40:24;4.30;;;1.33;;
65469;SDS011;52067;50.710;14.492;2022-09-09T13:42:56;6.82;;;1.40;;
65469;SDS011;52067;50.710;14.492;2022-09-09T13:45:23;4.75;;;1.20;;
65469;SDS011;52067;50.710;14.492;2022-09-09T13:47:53;2.80;;;1.20;;
65469;SDS011;52067;50.710;14.492;2022-09-09T13:50:25;4.65;;;1.30;;
65469;SDS011;52067;50.710;14.492;2022-09-09T13:52:52;2.28;;;1.20;;
65469;SDS011;52067;50.710;14.492;2022-09-09T13:55:20;2.83;;;1.20;;
65469;SDS011;52067;50.710;14.492;2022-09-09T13:58:00;2.97;;;1.20;;
65469;SDS011;52067;50.710;14.492;2022-09-09T14:00:28;4.95;;;1.40;;
65469;SDS011;52067;50.710;14.492;2022-09-09T14:02:55;3.58;;;1.33;;
65469;SDS011;52067;50.710;14.492;2022-09-09T14:05:20;2.85;;;1.15;;
65469;SDS011;52067;50.710;14.492;2022-09-09T14:07:47;3.28;;;1.10;;
65469;SDS011;52067;50.710;14.492;2022-09-09T14:10:13;1.95;;;1.10;;
65469;SDS011;52067;50.710;14.492;2022-09-09T14:12:39;3.28;;;1.10;;
65469;SDS011;52067;50.710;14.492;2022-09-09T14:15:05;1.88;;;1.20;;
65469;SDS011;52067;50.710;14.492;2022-09-09T14:17:33;8.10;;;1.73;;
65469;SDS011;52067;50.710;14.492;2022-09-09T14:20:01;3.50;;;1.15;;
65469;SDS011;52067;50.710;14.492;2022-09-09T14:22:27;5.03;;;1.20;;
65469;SDS011;52067;50.710;14.492;2022-09-09T14:24:53;11.23;;;2.42;;
65469;SDS011;52067;50.710;14.492;2022-09-09T14:27:18;4.80;;;1.75;;
65469;SDS011;52067;50.710;14.492;2022-09-09T14:29:44;3.83;;;1.60;;
65469;SDS011;52067;50.710;14.492;2022-09-09T14:32:10;4.03;;;1.50;;
65469;SDS011;52067;50.710;14.492;2022-09-09T14:34:36;13.63;;;1.95;;
65469;SDS011;52067;50.710;14.492;2022-09-09T14:37:02;3.88;;;1.38;;
65469;SDS011;52067;50.710;14.492;2022-09-09T14:39:27;2.90;;;1.30;;
65469;SDS011;52067;50.710;14.492;2022-09-09T14:41:53;2.17;;;1.30;;
65469;SDS011;52067;50.710;14.492;2022-09-09T14:44:18;3.22;;;1.45;;
65469;SDS011;52067;50.710;14.492;2022-09-09T14:46:43;4.30;;;1.35;;
65469;SDS011;52067;50.710;14.492;2022-09-09T14:49:09;2.67;;;1.15;;
65469;SDS011;52067;50.710;14.492;2022-09-09T14:51:38;2.85;;;1.50;;
65469;SDS011;52067;50.710;14.492;2022-09-09T14:54:03;2.97;;;1.20;;
65469;SDS011;52067;50.710;14.492;2022-09-09T14:56:30;5.00;;;1.42;;
65469;SDS011;52067;50.710;14.492;2022-09-09T14:58:58;4.65;;;1.25;;
65469;SDS011;52067;50.710;14.492;2022-09-09T15:01:25;6.03;;;1.45;;
65469;SDS011;52067;50.710;14.492;2022-09-09T15:03:55;3.35;;;1.40;;
65469;SDS011;52067;50.710;14.492;2022-09-09T15:06:23;4.00;;;1.23;;
65469;SDS011;52067;50.710;14.492;2022-09-09T15:08:49;3.78;;;1.20;;
65469;SDS011;52067;50.710;14.492;2022-09-09T15:11:17;5.43;;;1.25;;
65469;SDS011;52067;50.710;14.492;2022-09-09T15:13:43;3.72;;;1.10;;
65469;SDS011;52067;50.710;14.492;2022-09-09T15:16:10;5.70;;;1.00;;
65469;SDS011;52067;50.710;14.492;2022-09-09T15:18:40;3.50;;;1.08;;
65469;SDS011;52067;50.710;14.492;2022-09-09T15:21:17;6.22;;;1.20;;
65469;SDS011;52067;50.710;14.492;2022-09-09T15:23:44;3.08;;;1.20;;
65469;SDS011;52067;50.710;14.492;2022-09-09T15:26:11;2.03;;;1.05;;
65469;SDS011;52067;50.710;14.492;2022-09-09T15:28:39;4.97;;;1.42;;
65469;SDS011;52067;50.710;14.492;2022-09-09T15:31:15;3.60;;;1.42;;
65469;SDS011;52067;50.710;14.492;2022-09-09T15:33:46;2.78;;;1.25;;
65469;SDS011;52067;50.710;14.492;2022-09-09T15:36:22;4.57;;;1.05;;
65469;SDS011;52067;50.710;14.492;2022-09-09T15:38:50;3.13;;;1.25;;
65469;SDS011;52067;50.710;14.492;2022-09-09T15:41:16;7.93;;;1.67;;
65469;SDS011;52067;50.710;14.492;2022-09-09T15:43:44;2.17;;;0.95;;
65469;SDS011;52067;50.710;14.492;2022-09-09T15:46:32;3.20;;;1.20;;
65469;SDS011;52067;50.710;14.492;2022-09-09T15:49:09;4.25;;;1.20;;
65469;SDS011;52067;50.710;14.492;2022-09-09T15:51:40;2.95;;;1.00;;
65469;SDS011;52067;50.710;14.492;2022-09-09T15:54:07;2.35;;;1.08;;
65469;SDS011;52067;50.710;14.492;2022-09-09T15:56:38;2.67;;;1.10;;
65469;SDS011;52067;50.710;14.492;2022-09-09T15:59:03;4.75;;;1.10;;
65469;SDS011;52067;50.710;14.492;2022-09-09T16:01:29;2.22;;;0.85;;
65469;SDS011;52067;50.710;14.492;2022-09-09T16:03:56;3.67;;;1.20;;
65469;SDS011;52067;50.710;14.492;2022-09-09T16:06:23;2.42;;;1.20;;
65469;SDS011;52067;50.710;14.492;2022-09-09T16:08:50;2.13;;;0.98;;
65469;SDS011;52067;50.710;14.492;2022-09-09T16:11:25;3.85;;;1.20;;
65469;SDS011;52067;50.710;14.492;2022-09-09T16:13:52;3.65;;;1.33;;
65469;SDS011;52067;50.710;14.492;2022-09-09T16:16:20;6.40;;;3.40;;
65469;SDS011;52067;50.710;14.492;2022-09-09T16:18:53;6.72;;;2.20;;
65469;SDS011;52067;50.710;14.492;2022-09-09T16:21:21;4.43;;;2.63;;
65469;SDS011;52067;50.710;14.492;2022-09-09T16:23:54;4.82;;;3.08;;
65469;SDS011;52067;50.710;14.492;2022-09-09T16:26:19;7.57;;;1.45;;
65469;SDS011;52067;50.710;14.492;2022-09-09T16:28:45;1.98;;;1.10;;
65469;SDS011;52067;50.710;14.492;2022-09-09T16:31:15;4.25;;;1.40;;
65469;SDS011;52067;50.710;14.492;2022-09-09T16:33:43;3.72;;;1.33;;
65469;SDS011;52067;50.710;14.492;2022-09-09T16:36:10;4.07;;;1.25;;
65469;SDS011;52067;50.710;14.492;2022-09-09T16:38:38;3.22;;;1.38;;
65469;SDS011;52067;50.710;14.492;2022-09-09T16:41:05;4.55;;;1.50;;
65469;SDS011;52067;50.710;14.492;2022-09-09T16:43:32;2.22;;;1.45;;
65469;SDS011;52067;50.710;14.492;2022-09-09T16:45:58;8.10;;;1.77;;
65469;SDS011;52067;50.710;14.492;2022-09-09T16:48:26;5.13;;;1.40;;
65469;SDS011;52067;50.710;14.492;2022-09-09T16:50:51;7.57;;;1.70;;
65469;SDS011;52067;50.710;14.492;2022-09-09T16:53:17;3.67;;;1.50;;
65469;SDS011;52067;50.710;14.492;2022-09-09T16:55:43;6.03;;;1.73;;
65469;SDS011;52067;50.710;14.492;2022-09-09T16:58:12;8.18;;;2.00;;
65469;SDS011;52067;50.710;14.492;2022-09-09T17:00:37;4.25;;;1.58;;
65469;SDS011;52067;50.710;14.492;2022-09-09T17:03:03;4.90;;;1.70;;
65469;SDS011;52067;50.710;14.492;2022-09-09T17:05:28;4.70;;;1.40;;
65469;SDS011;52067;50.710;14.492;2022-09-09T17:07:54;4.57;;;1.60;;
65469;SDS011;52067;50.710;14.492;2022-09-09T17:10:22;4.63;;;1.60;;